Lowellville, Ohio
Current Conditions -  °F | °C
As of 8:51 AM on Sunday 23 Nov 2014 (Local Time) from KYNG Reporting Station
Overcast Overcast  
Wind Chill: 39°   Ceiling: 6000
Heat Index: 43°   Visibility: 10mi
Dew Point: 39°   Wind: 6mph
Humidity: 86%   Direction: 150°SSE
Pressure: 30.06"   Gusts: NA
Location:  41.04°N, 80.54°W
Report Text: KYNG 231351Z 15005KT 10SM FEW030 BKN060 OVC075 06/04 A3006 RMK AO2 SLP186 T00610039
Loading
Personal Weather Stations






























Interactive Weather Map New forecast layout! Learn more

10-Day Weather Forecast

Advertisements
Track Severe Weather on mobile